sensor_id;sensor_type;location;lat;lon;timestamp;temperature;humidity
20045;DHT22;10183;47.808;9.476;2022-12-20T00:01:33;1.00;99.90
20045;DHT22;10183;47.808;9.476;2022-12-20T00:04:02;1.10;99.90
20045;DHT22;10183;47.808;9.476;2022-12-20T00:06:28;1.20;99.90
20045;DHT22;10183;47.808;9.476;2022-12-20T00:08:57;1.20;99.90
20045;DHT22;10183;47.808;9.476;2022-12-20T00:11:24;1.20;99.90
20045;DHT22;10183;47.808;9.476;2022-12-20T00:13:51;1.30;99.90
20045;DHT22;10183;47.808;9.476;2022-12-20T00:16:22;1.30;99.90
20045;DHT22;10183;47.808;9.476;2022-12-20T00:18:53;1.30;99.90
20045;DHT22;10183;47.808;9.476;2022-12-20T00:21:20;1.40;99.90
20045;DHT22;10183;47.808;9.476;2022-12-20T00:23:46;1.40;99.90
20045;DHT22;10183;47.808;9.476;2022-12-20T00:26:15;1.40;99.90
20045;DHT22;10183;47.808;9.476;2022-12-20T00:28:43;1.40;99.90
20045;DHT22;10183;47.808;9.476;2022-12-20T00:31:11;1.30;99.90
20045;DHT22;10183;47.808;9.476;2022-12-20T00:33:39;1.40;99.90
20045;DHT22;10183;47.808;9.476;2022-12-20T00:36:06;1.40;99.90
20045;DHT22;10183;47.808;9.476;2022-12-20T00:38:33;1.40;99.90
20045;DHT22;10183;47.808;9.476;2022-12-20T00:41:20;1.40;99.90
20045;DHT22;10183;47.808;9.476;2022-12-20T00:43:47;1.50;99.90
20045;DHT22;10183;47.808;9.476;2022-12-20T00:46:15;1.50;99.90
20045;DHT22;10183;47.808;9.476;2022-12-20T00:48:42;1.40;99.90
20045;DHT22;10183;47.808;9.476;2022-12-20T00:51:11;1.40;99.90
20045;DHT22;10183;47.808;9.476;2022-12-20T00:53:38;1.50;99.90
20045;DHT22;10183;47.808;9.476;2022-12-20T00:56:05;1.40;99.90
20045;DHT22;10183;47.808;9.476;2022-12-20T00:58:32;1.50;99.90
20045;DHT22;10183;47.808;9.476;2022-12-20T01:00:59;1.50;99.90
20045;DHT22;10183;47.808;9.476;2022-12-20T01:03:25;1.50;99.90
20045;DHT22;10183;47.808;9.476;2022-12-20T01:05:53;1.60;99.90
20045;DHT22;10183;47.808;9.476;2022-12-20T01:08:20;1.60;99.90
20045;DHT22;10183;47.808;9.476;2022-12-20T01:10:56;1.60;99.90
20045;DHT22;10183;47.808;9.476;2022-12-20T01:13:22;1.60;99.90
20045;DHT22;10183;47.808;9.476;2022-12-20T01:15:49;1.60;99.90
20045;DHT22;10183;47.808;9.476;2022-12-20T01:18:15;1.60;99.90
20045;DHT22;10183;47.808;9.476;2022-12-20T01:20:41;1.50;99.90
20045;DHT22;10183;47.808;9.476;2022-12-20T01:23:07;1.40;99.90
20045;DHT22;10183;47.808;9.476;2022-12-20T01:25:33;1.30;99.90
20045;DHT22;10183;47.808;9.476;2022-12-20T01:27:59;1.20;99.90
20045;DHT22;10183;47.808;9.476;2022-12-20T01:30:25;1.20;99.90
20045;DHT22;10183;47.808;9.476;2022-12-20T01:32:52;1.30;99.90
20045;DHT22;10183;47.808;9.476;2022-12-20T01:35:18;1.40;99.90
20045;DHT22;10183;47.808;9.476;2022-12-20T01:37:44;1.50;99.90
20045;DHT22;10183;47.808;9.476;2022-12-20T01:40:10;1.50;99.90
20045;DHT22;10183;47.808;9.476;2022-12-20T01:42:36;1.60;99.90
20045;DHT22;10183;47.808;9.476;2022-12-20T01:45:06;1.60;99.90
20045;DHT22;10183;47.808;9.476;2022-12-20T01:47:33;1.70;99.90
20045;DHT22;10183;47.808;9.476;2022-12-20T01:50:04;1.70;99.90
20045;DHT22;10183;47.808;9.476;2022-12-20T01:52:34;1.80;99.90
20045;DHT22;10183;47.808;9.476;2022-12-20T01:55:09;1.90;99.90
20045;DHT22;10183;47.808;9.476;2022-12-20T01:57:43;1.90;99.90
20045;DHT22;10183;47.808;9.476;2022-12-20T02:00:11;1.80;99.90
20045;DHT22;10183;47.808;9.476;2022-12-20T02:02:37;1.90;99.90
20045;DHT22;10183;47.808;9.476;2022-12-20T02:05:04;1.90;99.90
20045;DHT22;10183;47.808;9.476;2022-12-20T02:07:32;2.00;99.90
20045;DHT22;10183;47.808;9.476;2022-12-20T02:10:00;2.00;99.90
20045;DHT22;10183;47.808;9.476;2022-12-20T02:12:40;2.10;99.90
20045;DHT22;10183;47.808;9.476;2022-12-20T02:15:27;2.10;99.90
20045;DHT22;10183;47.808;9.476;2022-12-20T02:18:31;2.00;99.90
20045;DHT22;10183;47.808;9.476;2022-12-20T02:23:52;1.70;99.90
20045;DHT22;10183;47.808;9.476;2022-12-20T02:32:13;1.80;99.90
20045;DHT22;10183;47.808;9.476;2022-12-20T02:34:42;1.80;99.90
20045;DHT22;10183;47.808;9.476;2022-12-20T02:37:09;1.90;99.90
20045;DHT22;10183;47.808;9.476;2022-12-20T02:39:38;1.90;99.90
20045;DHT22;10183;47.808;9.476;2022-12-20T02:42:13;1.90;99.90
20045;DHT22;10183;47.808;9.476;2022-12-20T02:44:43;1.90;99.90
20045;DHT22;10183;47.808;9.476;2022-12-20T02:47:33;1.90;99.90
20045;DHT22;10183;47.808;9.476;2022-12-20T02:50:02;1.90;99.90
20045;DHT22;10183;47.808;9.476;2022-12-20T02:52:30;1.90;99.90
20045;DHT22;10183;47.808;9.476;2022-12-20T02:54:57;2.00;99.90
20045;DHT22;10183;47.808;9.476;2022-12-20T03:00:16;2.00;99.90
20045;DHT22;10183;47.808;9.476;2022-12-20T03:02:43;2.00;99.90
20045;DHT22;10183;47.808;9.476;2022-12-20T03:05:29;2.10;99.90
20045;DHT22;10183;47.808;9.476;2022-12-20T03:07:57;2.00;99.90
20045;DHT22;10183;47.808;9.476;2022-12-20T03:10:24;2.00;99.90
20045;DHT22;10183;47.808;9.476;2022-12-20T03:12:51;2.00;99.90
20045;DHT22;10183;47.808;9.476;2022-12-20T03:15:17;2.10;99.90
20045;DHT22;10183;47.808;9.476;2022-12-20T03:17:43;2.10;99.90
20045;DHT22;10183;47.808;9.476;2022-12-20T03:20:10;2.10;99.90
20045;DHT22;10183;47.808;9.476;2022-12-20T03:22:36;2.10;99.90
20045;DHT22;10183;47.808;9.476;2022-12-20T03:25:03;2.10;99.90
20045;DHT22;10183;47.808;9.476;2022-12-20T03:27:30;2.10;99.90
20045;DHT22;10183;47.808;9.476;2022-12-20T03:29:56;2.10;99.90
20045;DHT22;10183;47.808;9.476;2022-12-20T03:32:22;2.10;99.90
20045;DHT22;10183;47.808;9.476;2022-12-20T03:34:48;2.00;99.90
20045;DHT22;10183;47.808;9.476;2022-12-20T03:37:15;2.10;99.90
20045;DHT22;10183;47.808;9.476;2022-12-20T03:39:41;2.10;99.90
20045;DHT22;10183;47.808;9.476;2022-12-20T03:42:07;2.10;99.90
20045;DHT22;10183;47.808;9.476;2022-12-20T03:44:33;2.10;99.90
20045;DHT22;10183;47.808;9.476;2022-12-20T03:46:59;1.90;99.90
20045;DHT22;10183;47.808;9.476;2022-12-20T03:49:26;1.80;99.90
20045;DHT22;10183;47.808;9.476;2022-12-20T03:51:52;1.80;99.90
20045;DHT22;10183;47.808;9.476;2022-12-20T03:54:18;1.80;99.90
20045;DHT22;10183;47.808;9.476;2022-12-20T03:56:44;1.90;99.90
20045;DHT22;10183;47.808;9.476;2022-12-20T03:59:10;1.90;99.90
20045;DHT22;10183;47.808;9.476;2022-12-20T04:01:37;2.00;99.90
20045;DHT22;10183;47.808;9.476;2022-12-20T04:04:03;2.10;99.90
20045;DHT22;10183;47.808;9.476;2022-12-20T04:06:30;2.10;99.90
20045;DHT22;10183;47.808;9.476;2022-12-20T04:08:56;2.10;99.90
20045;DHT22;10183;47.808;9.476;2022-12-20T04:11:22;2.10;99.90
20045;DHT22;10183;47.808;9.476;2022-12-20T04:13:51;2.10;99.90
20045;DHT22;10183;47.808;9.476;2022-12-20T04:16:21;2.10;99.90
20045;DHT22;10183;47.808;9.476;2022-12-20T04:18:47;2.10;99.90
20045;DHT22;10183;47.808;9.476;2022-12-20T04:21:14;2.10;99.90
20045;DHT22;10183;47.808;9.476;2022-12-20T04:23:42;2.20;99.90
20045;DHT22;10183;47.808;9.476;2022-12-20T04:26:09;2.20;99.90
20045;DHT22;10183;47.808;9.476;2022-12-20T04:28:36;2.30;99.90
20045;DHT22;10183;47.808;9.476;2022-12-20T04:31:02;2.30;99.90
20045;DHT22;10183;47.808;9.476;2022-12-20T04:33:29;2.30;99.90
20045;DHT22;10183;47.808;9.476;2022-12-20T04:35:55;2.40;99.90
20045;DHT22;10183;47.808;9.476;2022-12-20T04:38:22;2.40;99.90
20045;DHT22;10183;47.808;9.476;2022-12-20T04:40:49;2.50;99.90
20045;DHT22;10183;47.808;9.476;2022-12-20T04:43:17;2.40;99.90
20045;DHT22;10183;47.808;9.476;2022-12-20T04:45:45;2.40;99.90
20045;DHT22;10183;47.808;9.476;2022-12-20T04:48:12;2.50;99.90
20045;DHT22;10183;47.808;9.476;2022-12-20T04:50:38;2.60;99.90
20045;DHT22;10183;47.808;9.476;2022-12-20T04:53:05;2.50;99.90
20045;DHT22;10183;47.808;9.476;2022-12-20T04:55:50;2.50;99.90
20045;DHT22;10183;47.808;9.476;2022-12-20T04:58:16;2.60;99.90
20045;DHT22;10183;47.808;9.476;2022-12-20T05:00:42;2.60;99.90
20045;DHT22;10183;47.808;9.476;2022-12-20T05:03:08;2.60;99.90
20045;DHT22;10183;47.808;9.476;2022-12-20T05:05:34;2.60;99.90
20045;DHT22;10183;47.808;9.476;2022-12-20T05:08:00;2.70;99.90
20045;DHT22;10183;47.808;9.476;2022-12-20T05:10:27;2.60;99.90
20045;DHT22;10183;47.808;9.476;2022-12-20T05:12:53;2.60;99.90
20045;DHT22;10183;47.808;9.476;2022-12-20T05:15:19;2.60;99.90
20045;DHT22;10183;47.808;9.476;2022-12-20T05:17:45;2.60;99.90
20045;DHT22;10183;47.808;9.476;2022-12-20T05:20:12;2.60;99.90
20045;DHT22;10183;47.808;9.476;2022-12-20T05:22:38;2.60;99.90
20045;DHT22;10183;47.808;9.476;2022-12-20T05:25:23;2.60;99.90
20045;DHT22;10183;47.808;9.476;2022-12-20T05:28:07;2.60;99.90
20045;DHT22;10183;47.808;9.476;2022-12-20T05:30:34;2.60;99.90
20045;DHT22;10183;47.808;9.476;2022-12-20T05:33:00;2.50;99.90
20045;DHT22;10183;47.808;9.476;2022-12-20T05:35:26;2.60;99.90
20045;DHT22;10183;47.808;9.476;2022-12-20T05:37:52;2.60;99.90
20045;DHT22;10183;47.808;9.476;2022-12-20T05:40:19;2.60;99.90
20045;DHT22;10183;47.808;9.476;2022-12-20T05:42:45;2.60;99.90
20045;DHT22;10183;47.808;9.476;2022-12-20T05:45:11;2.60;99.90
20045;DHT22;10183;47.808;9.476;2022-12-20T05:47:37;2.50;99.90
20045;DHT22;10183;47.808;9.476;2022-12-20T05:50:04;2.60;99.90
20045;DHT22;10183;47.808;9.476;2022-12-20T05:52:30;2.60;99.90
20045;DHT22;10183;47.808;9.476;2022-12-20T05:54:56;2.60;99.90
20045;DHT22;10183;47.808;9.476;2022-12-20T05:57:23;2.60;99.90
20045;DHT22;10183;47.808;9.476;2022-12-20T05:59:49;2.60;99.90
20045;DHT22;10183;47.808;9.476;2022-12-20T06:02:15;2.60;99.90
20045;DHT22;10183;47.808;9.476;2022-12-20T06:04:41;2.60;99.90
20045;DHT22;10183;47.808;9.476;2022-12-20T06:07:07;2.60;99.90
20045;DHT22;10183;47.808;9.476;2022-12-20T06:09:33;2.60;99.90
20045;DHT22;10183;47.808;9.476;2022-12-20T06:12:00;2.60;99.90
20045;DHT22;10183;47.808;9.476;2022-12-20T06:14:26;2.60;99.90
20045;DHT22;10183;47.808;9.476;2022-12-20T06:16:52;2.60;99.90
20045;DHT22;10183;47.808;9.476;2022-12-20T06:19:18;2.60;99.90
20045;DHT22;10183;47.808;9.476;2022-12-20T06:21:45;2.60;99.90
20045;DHT22;10183;47.808;9.476;2022-12-20T06:24:11;2.60;99.90
20045;DHT22;10183;47.808;9.476;2022-12-20T06:26:37;2.50;99.90
20045;DHT22;10183;47.808;9.476;2022-12-20T06:29:05;2.50;99.90
20045;DHT22;10183;47.808;9.476;2022-12-20T06:31:39;2.50;99.90
20045;DHT22;10183;47.808;9.476;2022-12-20T06:34:06;2.50;99.90
20045;DHT22;10183;47.808;9.476;2022-12-20T06:36:32;2.50;99.90
20045;DHT22;10183;47.808;9.476;2022-12-20T06:38:58;2.50;99.90
20045;DHT22;10183;47.808;9.476;2022-12-20T06:41:25;2.50;99.90
20045;DHT22;10183;47.808;9.476;2022-12-20T06:43:51;2.50;99.90
20045;DHT22;10183;47.808;9.476;2022-12-20T06:46:17;2.60;99.90
20045;DHT22;10183;47.808;9.476;2022-12-20T06:48:43;2.70;99.90
20045;DHT22;10183;47.808;9.476;2022-12-20T06:51:09;2.70;99.90
20045;DHT22;10183;47.808;9.476;2022-12-20T06:53:36;2.70;99.90
20045;DHT22;10183;47.808;9.476;2022-12-20T06:56:02;2.70;99.90
20045;DHT22;10183;47.808;9.476;2022-12-20T06:58:28;2.70;99.90
20045;DHT22;10183;47.808;9.476;2022-12-20T07:00:54;2.70;99.90
20045;DHT22;10183;47.808;9.476;2022-12-20T07:03:20;2.70;99.90
20045;DHT22;10183;47.808;9.476;2022-12-20T07:05:51;2.70;99.90
20045;DHT22;10183;47.808;9.476;2022-12-20T07:08:19;2.70;99.90
20045;DHT22;10183;47.808;9.476;2022-12-20T07:10:45;2.70;99.90
20045;DHT22;10183;47.808;9.476;2022-12-20T07:13:11;2.80;99.90
20045;DHT22;10183;47.808;9.476;2022-12-20T07:15:37;2.80;99.90
20045;DHT22;10183;47.808;9.476;2022-12-20T07:18:04;2.70;99.90
20045;DHT22;10183;47.808;9.476;2022-12-20T07:20:32;2.60;99.90
20045;DHT22;10183;47.808;9.476;2022-12-20T07:22:58;2.50;99.90
20045;DHT22;10183;47.808;9.476;2022-12-20T07:25:25;2.50;99.90
20045;DHT22;10183;47.808;9.476;2022-12-20T07:27:51;2.50;99.90
20045;DHT22;10183;47.808;9.476;2022-12-20T07:30:18;2.50;99.90
20045;DHT22;10183;47.808;9.476;2022-12-20T07:32:45;2.60;99.90
20045;DHT22;10183;47.808;9.476;2022-12-20T07:35:12;2.60;99.90
20045;DHT22;10183;47.808;9.476;2022-12-20T07:37:38;2.60;99.90
20045;DHT22;10183;47.808;9.476;2022-12-20T07:40:05;2.70;99.90
20045;DHT22;10183;47.808;9.476;2022-12-20T07:42:32;2.80;99.90
20045;DHT22;10183;47.808;9.476;2022-12-20T07:44:58;2.80;99.90
20045;DHT22;10183;47.808;9.476;2022-12-20T07:47:24;2.80;99.90
20045;DHT22;10183;47.808;9.476;2022-12-20T07:49:51;2.80;99.90
20045;DHT22;10183;47.808;9.476;2022-12-20T07:52:20;2.80;99.90
20045;DHT22;10183;47.808;9.476;2022-12-20T07:54:54;2.80;99.90
20045;DHT22;10183;47.808;9.476;2022-12-20T07:57:26;2.80;99.90
20045;DHT22;10183;47.808;9.476;2022-12-20T07:59:56;2.90;99.90
20045;DHT22;10183;47.808;9.476;2022-12-20T08:02:28;2.90;99.90
20045;DHT22;10183;47.808;9.476;2022-12-20T08:04:56;3.00;99.90
20045;DHT22;10183;47.808;9.476;2022-12-20T08:07:23;3.10;99.90
20045;DHT22;10183;47.808;9.476;2022-12-20T08:09:49;3.10;99.90
20045;DHT22;10183;47.808;9.476;2022-12-20T08:12:18;3.20;99.90
20045;DHT22;10183;47.808;9.476;2022-12-20T08:14:44;3.00;99.90
20045;DHT22;10183;47.808;9.476;2022-12-20T08:17:11;3.00;99.90
20045;DHT22;10183;47.808;9.476;2022-12-20T08:19:37;3.10;99.90
20045;DHT22;10183;47.808;9.476;2022-12-20T08:22:04;3.20;99.90
20045;DHT22;10183;47.808;9.476;2022-12-20T08:24:32;3.30;99.90
20045;DHT22;10183;47.808;9.476;2022-12-20T08:26:58;3.30;99.90
20045;DHT22;10183;47.808;9.476;2022-12-20T08:29:24;3.20;99.90
20045;DHT22;10183;47.808;9.476;2022-12-20T08:31:50;3.20;99.90
20045;DHT22;10183;47.808;9.476;2022-12-20T08:34:17;3.30;99.90
20045;DHT22;10183;47.808;9.476;2022-12-20T08:36:45;3.40;99.90
20045;DHT22;10183;47.808;9.476;2022-12-20T08:39:11;3.50;99.90
20045;DHT22;10183;47.808;9.476;2022-12-20T08:41:37;3.60;99.90
20045;DHT22;10183;47.808;9.476;2022-12-20T08:44:04;3.80;99.90
20045;DHT22;10183;47.808;9.476;2022-12-20T08:46:30;3.80;99.90
20045;DHT22;10183;47.808;9.476;2022-12-20T08:48:57;3.90;99.90
20045;DHT22;10183;47.808;9.476;2022-12-20T08:51:23;3.80;99.90
20045;DHT22;10183;47.808;9.476;2022-12-20T08:53:49;3.60;99.90
20045;DHT22;10183;47.808;9.476;2022-12-20T08:56:16;3.70;99.90
20045;DHT22;10183;47.808;9.476;2022-12-20T08:58:43;3.60;99.90
20045;DHT22;10183;47.808;9.476;2022-12-20T09:01:12;3.60;99.90
20045;DHT22;10183;47.808;9.476;2022-12-20T09:03:39;3.80;99.90
20045;DHT22;10183;47.808;9.476;2022-12-20T09:06:09;3.80;99.90
20045;DHT22;10183;47.808;9.476;2022-12-20T09:08:36;3.70;99.90
20045;DHT22;10183;47.808;9.476;2022-12-20T09:11:05;3.80;99.90
20045;DHT22;10183;47.808;9.476;2022-12-20T09:13:31;3.90;99.90
20045;DHT22;10183;47.808;9.476;2022-12-20T09:16:02;3.90;99.90
20045;DHT22;10183;47.808;9.476;2022-12-20T09:18:29;3.90;99.90
20045;DHT22;10183;47.808;9.476;2022-12-20T09:21:01;4.10;99.90
20045;DHT22;10183;47.808;9.476;2022-12-20T09:23:29;4.00;99.90
20045;DHT22;10183;47.808;9.476;2022-12-20T09:26:00;4.10;99.90
20045;DHT22;10183;47.808;9.476;2022-12-20T09:28:26;4.10;99.90
20045;DHT22;10183;47.808;9.476;2022-12-20T09:30:57;4.10;99.90
20045;DHT22;10183;47.808;9.476;2022-12-20T09:33:23;4.00;99.90
20045;DHT22;10183;47.808;9.476;2022-12-20T09:35:49;3.90;99.90
20045;DHT22;10183;47.808;9.476;2022-12-20T09:38:15;4.10;99.90
20045;DHT22;10183;47.808;9.476;2022-12-20T09:40:47;4.40;99.90
20045;DHT22;10183;47.808;9.476;2022-12-20T09:43:15;4.60;99.90
20045;DHT22;10183;47.808;9.476;2022-12-20T09:45:44;4.70;99.90
20045;DHT22;10183;47.808;9.476;2022-12-20T09:48:25;4.90;99.90
20045;DHT22;10183;47.808;9.476;2022-12-20T09:56:15;5.40;99.90
20045;DHT22;10183;47.808;9.476;2022-12-20T09:59:05;5.60;99.90
20045;DHT22;10183;47.808;9.476;2022-12-20T10:01:33;5.70;99.90
20045;DHT22;10183;47.808;9.476;2022-12-20T10:04:03;5.70;99.90
20045;DHT22;10183;47.808;9.476;2022-12-20T10:12:19;4.70;99.90
20045;DHT22;10183;47.808;9.476;2022-12-20T10:20:52;4.60;99.90
20045;DHT22;10183;47.808;9.476;2022-12-20T10:25:56;4.40;99.90
20045;DHT22;10183;47.808;9.476;2022-12-20T10:28:27;4.40;99.90
20045;DHT22;10183;47.808;9.476;2022-12-20T10:30:58;4.30;99.90
20045;DHT22;10183;47.808;9.476;2022-12-20T10:33:27;4.40;99.90
20045;DHT22;10183;47.808;9.476;2022-12-20T10:35:53;4.60;99.90
20045;DHT22;10183;47.808;9.476;2022-12-20T10:38:19;4.70;99.90
20045;DHT22;10183;47.808;9.476;2022-12-20T10:41:02;4.70;99.90
20045;DHT22;10183;47.808;9.476;2022-12-20T10:43:41;4.70;99.90
20045;DHT22;10183;47.808;9.476;2022-12-20T10:46:08;4.60;99.90
20045;DHT22;10183;47.808;9.476;2022-12-20T10:48:40;4.50;99.90
20045;DHT22;10183;47.808;9.476;2022-12-20T10:53:48;4.70;99.90
20045;DHT22;10183;47.808;9.476;2022-12-20T10:56:29;4.70;99.90
20045;DHT22;10183;47.808;9.476;2022-12-20T10:59:35;4.80;99.90
20045;DHT22;10183;47.808;9.476;2022-12-20T11:01:54;4.80;99.90
20045;DHT22;10183;47.808;9.476;2022-12-20T11:06:46;5.40;99.90
20045;DHT22;10183;47.808;9.476;2022-12-20T11:12:14;4.90;99.90
20045;DHT22;10183;47.808;9.476;2022-12-20T11:14:43;4.90;99.90
20045;DHT22;10183;47.808;9.476;2022-12-20T11:17:44;5.20;99.90
20045;DHT22;10183;47.808;9.476;2022-12-20T11:20:46;5.30;99.90
20045;DHT22;10183;47.808;9.476;2022-12-20T11:26:12;5.10;99.90
20045;DHT22;10183;47.808;9.476;2022-12-20T11:28:55;4.80;99.90
20045;DHT22;10183;47.808;9.476;2022-12-20T11:34:29;4.90;99.90
20045;DHT22;10183;47.808;9.476;2022-12-20T11:39:47;5.10;99.90
20045;DHT22;10183;47.808;9.476;2022-12-20T11:42:37;5.00;99.90
20045;DHT22;10183;47.808;9.476;2022-12-20T11:50:44;5.10;99.90
20045;DHT22;10183;47.808;9.476;2022-12-20T11:53:27;5.20;99.90
20045;DHT22;10183;47.808;9.476;2022-12-20T11:56:00;5.20;99.90
20045;DHT22;10183;47.808;9.476;2022-12-20T11:58:37;5.40;99.90
20045;DHT22;10183;47.808;9.476;2022-12-20T12:01:12;5.60;99.90
20045;DHT22;10183;47.808;9.476;2022-12-20T12:03:45;5.60;99.90
20045;DHT22;10183;47.808;9.476;2022-12-20T12:06:29;5.60;99.90
20045;DHT22;10183;47.808;9.476;2022-12-20T12:11:28;5.80;99.90
20045;DHT22;10183;47.808;9.476;2022-12-20T12:13:56;5.70;99.90
20045;DHT22;10183;47.808;9.476;2022-12-20T12:16:38;5.60;99.90
20045;DHT22;10183;47.808;9.476;2022-12-20T12:19:08;5.50;99.90
20045;DHT22;10183;47.808;9.476;2022-12-20T12:21:57;5.40;99.90
20045;DHT22;10183;47.808;9.476;2022-12-20T12:24:37;5.20;99.90
20045;DHT22;10183;47.808;9.476;2022-12-20T12:27:04;4.80;99.90
20045;DHT22;10183;47.808;9.476;2022-12-20T12:29:32;4.80;99.90
20045;DHT22;10183;47.808;9.476;2022-12-20T12:33:10;5.00;99.90
20045;DHT22;10183;47.808;9.476;2022-12-20T12:35:50;5.00;99.90
20045;DHT22;10183;47.808;9.476;2022-12-20T12:41:11;4.90;99.90
20045;DHT22;10183;47.808;9.476;2022-12-20T12:49:02;5.00;99.90
20045;DHT22;10183;47.808;9.476;2022-12-20T12:51:35;4.80;99.90
20045;DHT22;10183;47.808;9.476;2022-12-20T12:54:04;4.90;99.90
20045;DHT22;10183;47.808;9.476;2022-12-20T12:56:46;5.00;99.90
20045;DHT22;10183;47.808;9.476;2022-12-20T12:59:23;5.20;99.90
20045;DHT22;10183;47.808;9.476;2022-12-20T13:01:53;5.10;99.90
20045;DHT22;10183;47.808;9.476;2022-12-20T13:04:51;5.20;99.90
20045;DHT22;10183;47.808;9.476;2022-12-20T13:10:59;5.20;99.90
20045;DHT22;10183;47.808;9.476;2022-12-20T13:20:35;5.50;99.90
20045;DHT22;10183;47.808;9.476;2022-12-20T13:25:45;5.70;99.90
20045;DHT22;10183;47.808;9.476;2022-12-20T13:41:36;6.80;99.90
20045;DHT22;10183;47.808;9.476;2022-12-20T13:46:53;7.60;99.90
20045;DHT22;10183;47.808;9.476;2022-12-20T13:49:31;7.50;99.90
20045;DHT22;10183;47.808;9.476;2022-12-20T13:52:11;7.90;99.90
20045;DHT22;10183;47.808;9.476;2022-12-20T13:54:43;9.80;99.90
20045;DHT22;10183;47.808;9.476;2022-12-20T13:57:39;11.70;99.90
20045;DHT22;10183;47.808;9.476;2022-12-20T14:00:21;13.40;99.90
20045;DHT22;10183;47.808;9.476;2022-12-20T14:02:48;15.90;99.90
20045;DHT22;10183;47.808;9.476;2022-12-20T14:05:24;17.70;99.90
20045;DHT22;10183;47.808;9.476;2022-12-20T14:08:09;18.60;93.30
20045;DHT22;10183;47.808;9.476;2022-12-20T14:10:38;19.20;80.60
20045;DHT22;10183;47.808;9.476;2022-12-20T14:13:24;19.80;69.70
20045;DHT22;10183;47.808;9.476;2022-12-20T14:15:51;20.30;64.60
20045;DHT22;10183;47.808;9.476;2022-12-20T14:18:20;20.80;57.70
20045;DHT22;10183;47.808;9.476;2022-12-20T14:20:53;20.60;56.60
20045;DHT22;10183;47.808;9.476;2022-12-20T14:23:35;20.50;56.10
20045;DHT22;10183;47.808;9.476;2022-12-20T14:26:03;19.60;59.20
20045;DHT22;10183;47.808;9.476;2022-12-20T14:28:43;19.50;59.80
20045;DHT22;10183;47.808;9.476;2022-12-20T14:34:11;17.60;61.60
20045;DHT22;10183;47.808;9.476;2022-12-20T14:36:41;15.40;75.60
20045;DHT22;10183;47.808;9.476;2022-12-20T14:41:57;11.50;99.90
20045;DHT22;10183;47.808;9.476;2022-12-20T14:44:26;10.20;99.90
20045;DHT22;10183;47.808;9.476;2022-12-20T14:47:00;9.20;99.90
20045;DHT22;10183;47.808;9.476;2022-12-20T14:49:34;8.30;99.90
20045;DHT22;10183;47.808;9.476;2022-12-20T14:54:54;6.50;99.90
20045;DHT22;10183;47.808;9.476;2022-12-20T15:02:44;5.50;99.90
20045;DHT22;10183;47.808;9.476;2022-12-20T15:08:26;4.30;99.90
20045;DHT22;10183;47.808;9.476;2022-12-20T15:15:58;4.10;99.90
20045;DHT22;10183;47.808;9.476;2022-12-20T15:18:24;4.10;99.90
20045;DHT22;10183;47.808;9.476;2022-12-20T15:21:13;4.10;99.90
20045;DHT22;10183;47.808;9.476;2022-12-20T15:23:46;3.90;99.90
20045;DHT22;10183;47.808;9.476;2022-12-20T15:26:16;3.80;99.90
20045;DHT22;10183;47.808;9.476;2022-12-20T15:28:42;3.70;99.90
20045;DHT22;10183;47.808;9.476;2022-12-20T15:31:13;3.60;99.90
20045;DHT22;10183;47.808;9.476;2022-12-20T15:33:42;3.50;99.90
20045;DHT22;10183;47.808;9.476;2022-12-20T15:36:21;3.50;99.90
20045;DHT22;10183;47.808;9.476;2022-12-20T15:38:49;3.40;99.90
20045;DHT22;10183;47.808;9.476;2022-12-20T15:43:47;3.10;99.90
20045;DHT22;10183;47.808;9.476;2022-12-20T15:46:15;3.10;99.90
20045;DHT22;10183;47.808;9.476;2022-12-20T15:48:42;3.00;99.90
20045;DHT22;10183;47.808;9.476;2022-12-20T15:51:32;3.00;99.90
20045;DHT22;10183;47.808;9.476;2022-12-20T15:54:01;3.00;99.90
20045;DHT22;10183;47.808;9.476;2022-12-20T15:56:27;2.90;99.90
20045;DHT22;10183;47.808;9.476;2022-12-20T15:58:54;2.90;99.90
20045;DHT22;10183;47.808;9.476;2022-12-20T16:01:24;2.90;99.90
20045;DHT22;10183;47.808;9.476;2022-12-20T16:03:52;2.80;99.90
20045;DHT22;10183;47.808;9.476;2022-12-20T16:06:18;2.70;99.90
20045;DHT22;10183;47.808;9.476;2022-12-20T16:08:44;2.70;99.90
20045;DHT22;10183;47.808;9.476;2022-12-20T16:11:22;2.70;99.90
20045;DHT22;10183;47.808;9.476;2022-12-20T16:13:50;2.70;99.90
20045;DHT22;10183;47.808;9.476;2022-12-20T16:16:18;2.70;99.90
20045;DHT22;10183;47.808;9.476;2022-12-20T16:18:44;2.70;99.90
20045;DHT22;10183;47.808;9.476;2022-12-20T16:21:19;3.10;99.90
20045;DHT22;10183;47.808;9.476;2022-12-20T16:23:46;3.20;99.90
20045;DHT22;10183;47.808;9.476;2022-12-20T16:26:14;3.70;99.90
20045;DHT22;10183;47.808;9.476;2022-12-20T16:28:41;3.90;99.90
20045;DHT22;10183;47.808;9.476;2022-12-20T16:31:27;4.00;99.90
20045;DHT22;10183;47.808;9.476;2022-12-20T16:33:54;4.00;99.90
20045;DHT22;10183;47.808;9.476;2022-12-20T16:36:21;4.10;99.90
20045;DHT22;10183;47.808;9.476;2022-12-20T16:38:48;4.20;99.90
20045;DHT22;10183;47.808;9.476;2022-12-20T16:41:18;4.30;99.90
20045;DHT22;10183;47.808;9.476;2022-12-20T16:43:46;4.20;99.90
20045;DHT22;10183;47.808;9.476;2022-12-20T16:46:17;4.20;99.90
20045;DHT22;10183;47.808;9.476;2022-12-20T16:48:44;4.30;99.90
20045;DHT22;10183;47.808;9.476;2022-12-20T16:51:47;4.70;99.90
20045;DHT22;10183;47.808;9.476;2022-12-20T16:54:19;4.60;99.90
20045;DHT22;10183;47.808;9.476;2022-12-20T16:56:46;4.50;99.90
20045;DHT22;10183;47.808;9.476;2022-12-20T16:59:13;4.30;99.90
20045;DHT22;10183;47.808;9.476;2022-12-20T17:01:41;4.20;99.90
20045;DHT22;10183;47.808;9.476;2022-12-20T17:04:13;4.10;99.90
20045;DHT22;10183;47.808;9.476;2022-12-20T17:06:40;4.00;99.90
20045;DHT22;10183;47.808;9.476;2022-12-20T17:09:07;4.00;99.90
20045;DHT22;10183;47.808;9.476;2022-12-20T17:11:34;3.90;99.90
20045;DHT22;10183;47.808;9.476;2022-12-20T17:14:00;3.90;99.90
20045;DHT22;10183;47.808;9.476;2022-12-20T17:16:27;3.80;99.90
20045;DHT22;10183;47.808;9.476;2022-12-20T17:18:55;3.70;99.90
20045;DHT22;10183;47.808;9.476;2022-12-20T17:21:36;3.70;99.90
20045;DHT22;10183;47.808;9.476;2022-12-20T17:24:04;3.70;99.90
20045;DHT22;10183;47.808;9.476;2022-12-20T17:26:34;3.70;99.90
20045;DHT22;10183;47.808;9.476;2022-12-20T17:29:00;3.70;99.90
20045;DHT22;10183;47.808;9.476;2022-12-20T17:31:31;3.70;99.90
20045;DHT22;10183;47.808;9.476;2022-12-20T17:34:15;3.80;99.90
20045;DHT22;10183;47.808;9.476;2022-12-20T17:36:43;3.80;99.90
20045;DHT22;10183;47.808;9.476;2022-12-20T17:39:09;3.90;99.90
20045;DHT22;10183;47.808;9.476;2022-12-20T17:41:35;3.90;99.90
20045;DHT22;10183;47.808;9.476;2022-12-20T17:44:03;4.00;99.90
20045;DHT22;10183;47.808;9.476;2022-12-20T17:46:29;4.00;99.90
20045;DHT22;10183;47.808;9.476;2022-12-20T17:48:56;3.90;99.90
20045;DHT22;10183;47.808;9.476;2022-12-20T17:51:28;3.90;99.90
20045;DHT22;10183;47.808;9.476;2022-12-20T17:53:57;3.90;99.90
20045;DHT22;10183;47.808;9.476;2022-12-20T17:56:26;3.90;99.90
20045;DHT22;10183;47.808;9.476;2022-12-20T17:58:53;3.90;99.90
20045;DHT22;10183;47.808;9.476;2022-12-20T18:01:23;3.80;99.90